createdAt,value
2019-02-27T00:02:13.873Z,1.30
2019-02-27T00:04:43.483Z,1.27
2019-02-27T00:07:13.094Z,1.23
2019-02-27T00:09:42.725Z,1.21
2019-02-27T00:12:12.345Z,1.21
2019-02-27T00:14:41.982Z,1.23
2019-02-27T00:17:11.633Z,1.21
2019-02-27T00:19:41.297Z,1.17
2019-02-27T00:22:10.925Z,1.22
2019-02-27T00:24:40.623Z,1.21
2019-02-27T00:27:14.574Z,1.20
2019-02-27T00:29:41.698Z,1.13
2019-02-27T00:32:11.406Z,1.06
2019-02-27T00:34:41.070Z,1.05
2019-02-27T00:37:10.693Z,1.02
2019-02-27T00:39:40.322Z,0.95
2019-02-27T00:42:10.294Z,0.94
2019-02-27T00:44:41.021Z,0.95
2019-02-27T00:47:10.620Z,0.93
2019-02-27T00:49:40.264Z,0.92
2019-02-27T00:52:09.859Z,0.96
2019-02-27T00:54:39.546Z,0.98
2019-02-27T00:57:09.270Z,1.01
2019-02-27T00:59:38.945Z,1.10
2019-02-27T01:02:08.702Z,1.06
2019-02-27T01:04:38.437Z,1.12
2019-02-27T01:07:08.095Z,1.13
2019-02-27T01:09:39.527Z,1.12
2019-02-27T01:12:09.173Z,1.12
2019-02-27T01:14:38.903Z,1.05
2019-02-27T01:17:08.644Z,0.99
2019-02-27T01:19:39.246Z,1.00
2019-02-27T01:22:09.033Z,0.96
2019-02-27T01:24:38.730Z,0.95
2019-02-27T01:27:08.451Z,0.88
2019-02-27T01:29:38.126Z,0.83
2019-02-27T01:32:07.820Z,0.80
2019-02-27T01:34:37.538Z,0.85
2019-02-27T01:37:07.287Z,0.85
2019-02-27T01:39:37.081Z,0.79
2019-02-27T01:42:06.766Z,0.75
2019-02-27T01:44:36.454Z,0.73
2019-02-27T01:47:06.169Z,0.72
2019-02-27T01:49:35.860Z,0.69
2019-02-27T01:52:05.576Z,0.69
2019-02-27T01:54:35.257Z,0.64
2019-02-27T01:57:04.964Z,0.57
2019-02-27T01:59:34.683Z,0.50
2019-02-27T02:02:04.476Z,0.45
2019-02-27T02:04:34.184Z,0.44
2019-02-27T02:07:06.242Z,0.33
2019-02-27T02:09:36.681Z,0.35
2019-02-27T02:12:09.433Z,0.39
2019-02-27T02:14:44.864Z,0.43
2019-02-27T02:17:34.067Z,0.43
2019-02-27T02:20:18.337Z,0.44
2019-02-27T02:22:54.048Z,0.43
2019-02-27T02:25:29.698Z,0.33
2019-02-27T02:28:23.623Z,0.26
2019-02-27T02:31:07.870Z,0.26
2019-02-27T02:33:52.791Z,0.30
2019-02-27T02:36:45.107Z,0.35
2019-02-27T02:39:36.403Z,0.33
2019-02-27T02:42:40.582Z,0.28
2019-02-27T02:45:18.650Z,0.28
2019-02-27T02:48:00.111Z,0.34
2019-02-27T02:50:41.033Z,0.34
2019-02-27T02:53:25.201Z,0.37
2019-02-27T02:56:24.973Z,0.36
2019-02-27T02:59:28.357Z,0.31
2019-02-27T03:02:13.324Z,0.28
2019-02-27T03:05:01.014Z,0.23
2019-02-27T03:07:51.659Z,0.21
2019-02-27T03:10:24.498Z,0.20
2019-02-27T03:13:30.609Z,0.24
2019-02-27T03:16:12.363Z,0.19
2019-02-27T03:18:48.035Z,0.12
2019-02-27T03:21:35.889Z,0.16
2019-02-27T03:24:28.972Z,0.16
2019-02-27T03:27:16.689Z,0.19
2019-02-27T03:29:53.413Z,0.17
2019-02-27T03:32:23.898Z,0.12
2019-02-27T03:35:08.445Z,0.30
2019-02-27T03:37:59.174Z,0.28
2019-02-27T03:40:51.285Z,0.27
2019-02-27T03:43:45.672Z,0.31
2019-02-27T03:46:18.448Z,0.27
2019-02-27T03:48:51.207Z,0.23
2019-02-27T03:51:35.879Z,0.17
2019-02-27T03:54:20.652Z,0.15
2019-02-27T03:56:54.034Z,0.15
2019-02-27T03:59:44.768Z,0.14
2019-02-27T04:02:26.424Z,0.12
2019-02-27T04:05:08.061Z,0.12
2019-02-27T04:08:07.035Z,0.09
2019-02-27T04:10:32.287Z,0.09
2019-02-27T04:13:02.102Z,0.13
2019-02-27T04:15:31.834Z,0.15
2019-02-27T04:18:00.378Z,0.18
2019-02-27T04:20:30.091Z,0.04
2019-02-27T04:22:59.770Z,-0.14
2019-02-27T04:25:31.341Z,-0.08
2019-02-27T04:28:00.919Z,-0.11
2019-02-27T04:30:30.683Z,-0.18
2019-02-27T04:33:00.377Z,-0.13
2019-02-27T04:35:30.085Z,-0.11
2019-02-27T04:37:59.803Z,-0.11
2019-02-27T04:40:29.512Z,-0.08
2019-02-27T04:42:59.885Z,-0.05
2019-02-27T04:45:29.720Z,-0.06
2019-02-27T04:47:59.445Z,-0.04
2019-02-27T04:50:29.172Z,-0.07
2019-02-27T04:52:58.834Z,-0.08
2019-02-27T04:55:28.572Z,-0.06
2019-02-27T04:57:58.289Z,-0.10
2019-02-27T05:00:27.982Z,-0.17
2019-02-27T05:02:57.693Z,-0.20
2019-02-27T05:05:27.412Z,-0.26
2019-02-27T05:07:57.134Z,-0.31
2019-02-27T05:10:26.876Z,-0.29
2019-02-27T05:12:56.561Z,-0.29
2019-02-27T05:15:26.331Z,-0.25
2019-02-27T05:17:56.307Z,-0.28
2019-02-27T05:20:25.985Z,-0.31
2019-02-27T05:23:00.116Z,-0.30
2019-02-27T05:25:27.248Z,-0.31
2019-02-27T05:28:01.014Z,-0.31
2019-02-27T05:30:28.317Z,-0.41
2019-02-27T05:33:01.800Z,-0.43
2019-02-27T05:35:29.503Z,-0.43
2019-02-27T05:37:59.161Z,-0.40
2019-02-27T05:40:28.898Z,-0.41
2019-02-27T05:42:58.584Z,-0.43
2019-02-27T05:45:31.193Z,-0.44
2019-02-27T05:47:59.710Z,-0.38
2019-02-27T05:50:34.009Z,-0.39
2019-02-27T05:53:00.866Z,-0.35
2019-02-27T05:55:30.580Z,-0.32
2019-02-27T05:58:00.261Z,-0.29
2019-02-27T06:00:30.461Z,-0.28
2019-02-27T06:03:00.141Z,-0.24
2019-02-27T06:05:29.881Z,-0.19
2019-02-27T06:08:02.074Z,-0.17
2019-02-27T06:10:30.982Z,-0.12
2019-02-27T06:13:00.678Z,-0.13
2019-02-27T06:15:30.421Z,-0.08
2019-02-27T06:18:00.109Z,-0.13
2019-02-27T06:20:29.850Z,-0.10
2019-02-27T06:23:04.225Z,-0.15
2019-02-27T06:25:30.895Z,-0.09
2019-02-27T06:28:00.590Z,-0.08
2019-02-27T06:30:30.597Z,-0.05
2019-02-27T06:33:01.091Z,-0.02
2019-02-27T06:35:33.512Z,-0.02
2019-02-27T06:38:02.218Z,0.02
2019-02-27T06:40:31.927Z,0.06
2019-02-27T06:43:01.625Z,0.10
2019-02-27T06:45:31.315Z,0.32
2019-02-27T06:48:01.059Z,0.57
2019-02-27T06:50:30.746Z,0.97
2019-02-27T06:53:00.445Z,1.28
2019-02-27T06:55:30.148Z,1.71
2019-02-27T06:57:59.884Z,1.97
2019-02-27T07:00:29.565Z,2.23
2019-02-27T07:02:59.265Z,2.37
2019-02-27T07:05:28.971Z,2.58
2019-02-27T07:07:58.669Z,2.79
2019-02-27T07:10:28.334Z,3.05
2019-02-27T07:12:58.023Z,3.24
2019-02-27T07:15:27.802Z,3.45
2019-02-27T07:17:57.585Z,3.66
2019-02-27T07:21:09.367Z,3.78
2019-02-27T07:23:38.966Z,3.94
2019-02-27T07:26:08.690Z,4.20
2019-02-27T07:28:38.370Z,4.36
2019-02-27T07:31:08.001Z,4.53
2019-02-27T07:33:40.167Z,4.63
2019-02-27T07:36:10.679Z,4.83
2019-02-27T07:38:40.307Z,4.87
2019-02-27T07:41:10.610Z,5.01
2019-02-27T07:43:40.257Z,5.14
2019-02-27T07:46:11.396Z,5.37
2019-02-27T07:48:41.030Z,5.54
2019-02-27T07:51:10.662Z,5.67
2019-02-27T07:53:40.758Z,5.95
2019-02-27T07:56:10.567Z,6.06
2019-02-27T07:58:44.915Z,6.26
2019-02-27T08:01:15.083Z,6.30
2019-02-27T08:03:45.736Z,6.42
2019-02-27T08:06:15.501Z,6.61
2019-02-27T08:08:45.292Z,6.73
2019-02-27T08:11:15.571Z,6.85
2019-02-27T08:13:45.268Z,7.04
2019-02-27T08:16:14.965Z,7.08
2019-02-27T08:18:53.092Z,7.22
2019-02-27T08:21:34.064Z,7.43
2019-02-27T08:24:07.415Z,7.58
2019-02-27T08:26:37.416Z,7.71
2019-02-27T08:29:07.078Z,7.87
2019-02-27T08:31:36.714Z,8.05
2019-02-27T08:34:06.373Z,8.23
2019-02-27T08:36:36.194Z,8.26
2019-02-27T08:39:06.655Z,8.27
2019-02-27T08:41:36.319Z,8.35
2019-02-27T08:44:06.024Z,8.45
2019-02-27T08:46:37.013Z,8.58
2019-02-27T08:49:07.176Z,8.72
2019-02-27T08:51:36.892Z,8.86
2019-02-27T08:54:06.567Z,8.93
2019-02-27T08:56:36.245Z,9.08
2019-02-27T08:59:06.137Z,9.20
2019-02-27T09:01:37.784Z,9.32
2019-02-27T09:04:11.377Z,9.29
2019-02-27T09:06:38.929Z,9.40
2019-02-27T09:09:08.597Z,9.47
2019-02-27T09:11:40.035Z,9.63
2019-02-27T09:14:11.899Z,9.70
2019-02-27T09:16:40.957Z,9.86
2019-02-27T09:21:40.311Z,10.11
2019-02-27T09:24:09.994Z,10.11
2019-02-27T09:26:39.702Z,10.20
2019-02-27T09:29:09.419Z,10.22
2019-02-27T09:31:39.114Z,10.21
2019-02-27T09:34:08.800Z,10.51
2019-02-27T09:36:43.031Z,10.49
2019-02-27T09:39:09.924Z,10.48
2019-02-27T09:41:39.612Z,10.42
2019-02-27T09:44:09.352Z,10.44
2019-02-27T09:46:39.850Z,10.34
2019-02-27T09:49:09.539Z,10.44
2019-02-27T09:51:39.203Z,10.46
2019-02-27T09:54:11.056Z,10.58
2019-02-27T09:56:40.208Z,10.59
2019-02-27T09:59:09.869Z,10.58
2019-02-27T10:01:39.543Z,10.60
2019-02-27T10:04:09.747Z,10.74
2019-02-27T10:06:40.474Z,10.79
2019-02-27T10:09:13.172Z,10.86
2019-02-27T10:11:42.834Z,10.95
2019-02-27T10:14:14.172Z,11.09
2019-02-27T10:16:43.895Z,11.13
2019-02-27T10:19:13.633Z,11.04
2019-02-27T10:21:44.601Z,11.16
2019-02-27T10:24:14.879Z,11.37
2019-02-27T10:26:44.553Z,11.47
2019-02-27T10:29:14.276Z,11.47
2019-02-27T10:31:43.991Z,11.50
2019-02-27T10:34:14.594Z,11.62
2019-02-27T10:36:45.023Z,11.61
2019-02-27T10:39:14.678Z,11.66
2019-02-27T10:41:44.950Z,11.80
2019-02-27T10:44:14.661Z,11.74
2019-02-27T10:46:44.321Z,11.90
2019-02-27T10:49:13.989Z,12.03
2019-02-27T10:51:44.383Z,12.20
2019-02-27T10:54:14.115Z,12.19
2019-02-27T10:56:43.776Z,12.21
2019-02-27T10:59:13.436Z,12.21
2019-02-27T11:01:43.200Z,12.35
2019-02-27T11:04:12.838Z,12.35
2019-02-27T11:06:42.777Z,12.46
2019-02-27T11:09:15.416Z,12.25
2019-02-27T11:11:45.088Z,12.39
2019-02-27T11:14:14.738Z,12.53
2019-02-27T11:16:44.425Z,12.74
2019-02-27T11:19:16.567Z,12.78
2019-02-27T11:21:45.455Z,12.93
2019-02-27T11:24:17.331Z,13.13
2019-02-27T11:26:46.499Z,12.97
2019-02-27T11:29:16.173Z,13.07
2019-02-27T11:31:46.158Z,13.17
2019-02-27T11:34:16.223Z,13.19
2019-02-27T11:36:46.031Z,13.32
2019-02-27T11:39:15.912Z,13.34
2019-02-27T11:41:46.119Z,13.58
2019-02-27T11:44:16.957Z,13.52
2019-02-27T11:46:46.661Z,13.58
2019-02-27T11:49:16.334Z,13.53
2019-02-27T11:51:46.008Z,13.59
2019-02-27T11:54:15.681Z,13.62
2019-02-27T11:56:45.339Z,13.56
2019-02-27T11:59:14.995Z,13.61
2019-02-27T12:01:44.678Z,13.55
2019-02-27T12:04:14.351Z,13.51
2019-02-27T12:06:44.045Z,13.70
2019-02-27T12:09:13.764Z,13.91
2019-02-27T12:11:48.305Z,14.06
2019-02-27T12:14:14.896Z,13.87
2019-02-27T12:16:44.540Z,13.97
2019-02-27T12:19:14.407Z,13.97
2019-02-27T12:21:44.062Z,14.13
2019-02-27T12:24:16.327Z,14.03
2019-02-27T12:26:46.119Z,14.16
2019-02-27T12:29:15.790Z,14.24
2019-02-27T12:31:48.222Z,14.20
2019-02-27T12:34:16.846Z,14.32
2019-02-27T12:36:46.492Z,14.47
2019-02-27T12:39:16.158Z,14.70
2019-02-27T12:41:45.800Z,14.98
2019-02-27T12:44:15.559Z,15.07
2019-02-27T12:46:45.208Z,15.17
2019-02-27T12:49:16.925Z,15.03
2019-02-27T12:52:22.692Z,15.16
2019-02-27T12:54:52.129Z,15.13
2019-02-27T12:57:34.020Z,15.04
2019-02-27T13:00:05.809Z,14.85
2019-02-27T13:02:36.899Z,14.70
2019-02-27T13:05:09.811Z,14.60
2019-02-27T13:07:39.476Z,14.54
2019-02-27T13:10:13.340Z,14.42
2019-02-27T13:12:43.077Z,14.47
2019-02-27T13:15:18.282Z,14.40
2019-02-27T13:17:48.085Z,14.54
2019-02-27T13:20:19.984Z,14.51
2019-02-27T13:22:49.675Z,14.50
2019-02-27T13:25:21.380Z,14.65
2019-02-27T13:27:50.818Z,14.56
2019-02-27T13:30:23.538Z,14.25
2019-02-27T13:32:53.224Z,14.15
2019-02-27T13:35:23.976Z,13.98
2019-02-27T13:37:53.878Z,13.94
2019-02-27T13:40:25.821Z,14.00
2019-02-27T13:42:55.481Z,14.02
2019-02-27T13:45:29.274Z,13.92
2019-02-27T13:47:59.173Z,13.95
2019-02-27T13:50:28.963Z,14.02
2019-02-27T13:52:59.003Z,13.95
2019-02-27T13:55:28.719Z,14.10
2019-02-27T13:57:59.183Z,14.14
2019-02-27T14:00:31.385Z,14.32
2019-02-27T14:03:01.073Z,14.50
2019-02-27T14:05:35.075Z,14.58
2019-02-27T14:08:02.087Z,14.53
2019-02-27T14:10:33.753Z,14.57
2019-02-27T14:13:08.775Z,14.70
2019-02-27T14:15:35.018Z,14.72
2019-02-27T14:18:04.670Z,14.78
2019-02-27T14:20:34.340Z,14.94
2019-02-27T14:23:04.067Z,14.88
2019-02-27T14:25:34.203Z,14.80
2019-02-27T14:28:03.922Z,14.77
2019-02-27T14:30:39.366Z,14.80
2019-02-27T14:33:10.944Z,14.85
2019-02-27T14:35:40.391Z,14.81
2019-02-27T14:38:10.035Z,14.82
2019-02-27T14:40:41.216Z,14.66
2019-02-27T14:43:11.036Z,14.61
2019-02-27T14:45:41.078Z,14.73
2019-02-27T14:48:11.029Z,14.54
2019-02-27T14:50:40.663Z,14.43
2019-02-27T14:53:10.845Z,14.40
2019-02-27T14:55:40.549Z,14.35
2019-02-27T14:58:12.216Z,14.37
2019-02-27T15:00:41.958Z,14.46
2019-02-27T15:03:11.633Z,14.33
2019-02-27T15:05:44.740Z,14.41
2019-02-27T15:08:14.873Z,14.28
2019-02-27T15:10:44.671Z,14.27
2019-02-27T15:13:14.457Z,14.11
2019-02-27T15:15:44.491Z,14.04
2019-02-27T15:18:15.117Z,13.93
2019-02-27T15:20:45.825Z,13.80
2019-02-27T15:23:16.591Z,13.72
2019-02-27T15:25:46.223Z,13.60
2019-02-27T15:28:16.104Z,13.77
2019-02-27T15:30:46.625Z,13.60
2019-02-27T15:33:16.991Z,13.68
2019-02-27T15:35:46.665Z,13.61
2019-02-27T15:38:16.310Z,13.54
2019-02-27T15:40:45.996Z,13.51
2019-02-27T15:43:17.287Z,13.49
2019-02-27T15:45:48.838Z,13.38
2019-02-27T15:48:19.053Z,13.37
2019-02-27T15:50:48.743Z,13.33
2019-02-27T15:53:18.606Z,13.22
2019-02-27T15:55:48.975Z,13.08
2019-02-27T15:58:18.683Z,12.96
2019-02-27T16:00:52.183Z,12.96
2019-02-27T16:03:19.936Z,12.87
2019-02-27T16:05:49.655Z,12.75
2019-02-27T16:08:20.182Z,12.80
2019-02-27T16:10:54.745Z,12.79
2019-02-27T16:13:22.261Z,12.81
2019-02-27T16:15:51.966Z,12.73
2019-02-27T16:18:21.675Z,12.56
2019-02-27T16:20:51.358Z,12.41
2019-02-27T16:23:21.018Z,12.31
2019-02-27T16:25:53.757Z,12.12
2019-02-27T16:28:22.111Z,11.99
2019-02-27T16:30:51.785Z,11.82
2019-02-27T16:33:23.883Z,11.64
2019-02-27T16:35:52.831Z,11.48
2019-02-27T16:38:22.540Z,11.25
2019-02-27T16:40:53.462Z,11.05
2019-02-27T16:43:26.843Z,10.88
2019-02-27T16:45:56.496Z,10.65
2019-02-27T16:48:26.162Z,10.45
2019-02-27T16:50:57.467Z,10.30
2019-02-27T16:53:27.181Z,10.11
2019-02-27T16:55:56.883Z,9.93
2019-02-27T16:58:32.785Z,9.73
2019-02-27T17:00:58.602Z,9.57
2019-02-27T17:03:28.387Z,9.43
2019-02-27T17:05:58.084Z,9.35
2019-02-27T17:08:28.388Z,9.18
2019-02-27T17:10:59.696Z,9.02
2019-02-27T17:13:29.430Z,8.97
2019-02-27T17:15:59.085Z,9.06
2019-02-27T17:18:29.314Z,8.96
2019-02-27T17:20:58.939Z,9.06
2019-02-27T17:23:28.629Z,9.24
2019-02-27T17:26:03.449Z,9.10
2019-02-27T17:28:29.750Z,9.06
2019-02-27T17:31:01.677Z,8.93
2019-02-27T17:33:31.589Z,8.85
2019-02-27T17:36:01.416Z,8.71
2019-02-27T17:38:31.095Z,8.59
2019-02-27T17:41:00.852Z,8.47
2019-02-27T17:43:30.553Z,8.42
2019-02-27T17:46:00.433Z,8.38
2019-02-27T17:48:30.316Z,8.42
2019-02-27T17:51:00.002Z,8.39
2019-02-27T17:53:29.674Z,8.55
2019-02-27T17:55:59.338Z,8.76
2019-02-27T17:58:31.879Z,8.67
2019-02-27T18:01:04.803Z,8.70
2019-02-27T18:03:36.663Z,8.82
2019-02-27T18:06:05.984Z,8.89
2019-02-27T18:08:35.681Z,8.94
2019-02-27T18:11:05.449Z,9.00
2019-02-27T18:13:36.212Z,8.90
2019-02-27T18:16:05.998Z,8.88
2019-02-27T18:18:35.813Z,9.11
2019-02-27T18:21:05.555Z,9.15
2019-02-27T18:23:35.228Z,9.13
2019-02-27T18:26:05.002Z,8.96
2019-02-27T18:28:34.748Z,8.95
2019-02-27T18:31:04.698Z,8.90
2019-02-27T18:33:34.373Z,8.81
2019-02-27T18:36:04.888Z,8.62
2019-02-27T18:38:35.411Z,8.47
2019-02-27T18:41:05.080Z,8.31
2019-02-27T18:43:34.877Z,8.10
2019-02-27T18:46:04.714Z,8.28
2019-02-27T18:48:34.457Z,8.23
2019-02-27T18:51:04.192Z,8.29
2019-02-27T18:53:33.963Z,8.22
2019-02-27T18:56:03.651Z,8.10
2019-02-27T18:58:33.347Z,8.00
2019-02-27T19:01:03.448Z,7.88
2019-02-27T19:03:33.241Z,7.75
2019-02-27T19:06:02.982Z,7.66
2019-02-27T19:08:32.648Z,7.65
2019-02-27T19:11:02.424Z,7.52
2019-02-27T19:13:32.427Z,7.39
2019-02-27T19:16:09.132Z,7.26
2019-02-27T19:18:41.163Z,7.16
2019-02-27T19:21:10.904Z,7.09
2019-02-27T19:23:40.878Z,7.02
2019-02-27T19:26:10.830Z,6.95
2019-02-27T19:28:40.735Z,6.87
2019-02-27T19:31:10.591Z,6.89
2019-02-27T19:33:40.865Z,6.91
2019-02-27T19:36:18.864Z,7.06
2019-02-27T19:38:44.247Z,7.40
2019-02-27T19:41:15.049Z,7.66
2019-02-27T19:43:44.772Z,7.68
2019-02-27T19:46:14.448Z,7.94
2019-02-27T19:48:44.167Z,8.11
2019-02-27T19:51:14.171Z,8.25
2019-02-27T19:53:43.873Z,8.21
2019-02-27T19:56:13.713Z,8.25
2019-02-27T19:58:43.358Z,8.26
2019-02-27T20:01:13.174Z,8.22
2019-02-27T20:03:42.903Z,7.99
2019-02-27T20:06:12.670Z,7.90
2019-02-27T20:08:45.337Z,7.79
2019-02-27T20:11:13.956Z,7.84
2019-02-27T20:13:43.820Z,7.88
2019-02-27T20:16:13.478Z,7.81
2019-02-27T20:18:43.627Z,7.88
2019-02-27T20:21:14.083Z,7.83
2019-02-27T20:23:43.737Z,7.94
2019-02-27T20:26:14.303Z,7.90
2019-02-27T20:28:44.129Z,7.88
2019-02-27T20:31:17.949Z,8.05
2019-02-27T20:33:45.249Z,8.14
2019-02-27T20:36:14.922Z,8.09
2019-02-27T20:38:47.470Z,8.06
2019-02-27T20:41:16.362Z,8.01
2019-02-27T20:43:46.079Z,8.01
2019-02-27T20:46:16.975Z,8.11
2019-02-27T20:48:46.660Z,8.22
2019-02-27T20:51:16.491Z,8.17
2019-02-27T20:53:46.238Z,8.18
2019-02-27T20:56:16.161Z,8.20
2019-02-27T20:58:51.076Z,8.17
2019-02-27T21:01:17.502Z,8.07
2019-02-27T21:03:47.250Z,7.96
2019-02-27T21:06:16.964Z,7.83
2019-02-27T21:08:46.713Z,7.86
2019-02-27T21:11:16.600Z,7.77
2019-02-27T21:13:49.343Z,7.70
2019-02-27T21:16:18.295Z,7.76
2019-02-27T21:18:48.045Z,7.73
2019-02-27T21:21:19.809Z,7.81
2019-02-27T21:23:49.237Z,7.74
2019-02-27T21:26:19.962Z,7.66
2019-02-27T21:28:58.179Z,7.62
2019-02-27T21:31:26.499Z,7.54
2019-02-27T21:33:53.297Z,7.42
2019-02-27T21:36:23.185Z,7.40
2019-02-27T21:38:52.889Z,7.43
2019-02-27T21:41:22.523Z,7.42
2019-02-27T21:43:52.179Z,7.45
2019-02-27T21:46:21.918Z,7.30
2019-02-27T21:48:51.597Z,7.42
2019-02-27T21:51:21.309Z,7.38
2019-02-27T21:53:51.032Z,7.36
2019-02-27T21:56:20.671Z,7.39
2019-02-27T21:58:50.431Z,7.30
2019-02-27T22:01:21.994Z,7.32
2019-02-27T22:03:51.579Z,7.28
2019-02-27T22:06:24.683Z,7.23
2019-02-27T22:08:53.719Z,7.21
2019-02-27T22:11:24.201Z,7.19
2019-02-27T22:13:54.729Z,7.16
2019-02-27T22:16:29.489Z,7.16
2019-02-27T22:18:55.743Z,7.09
2019-02-27T22:21:25.403Z,7.00
2019-02-27T22:23:57.823Z,7.00
2019-02-27T22:26:27.597Z,7.04
2019-02-27T22:28:57.319Z,6.93
2019-02-27T22:31:26.974Z,6.93
2019-02-27T22:33:57.749Z,6.88
2019-02-27T22:36:27.400Z,6.88
2019-02-27T22:39:00.164Z,6.93
2019-02-27T22:41:28.456Z,6.79
2019-02-27T22:43:58.260Z,6.82
2019-02-27T22:46:27.907Z,6.86
2019-02-27T22:49:00.013Z,6.75
2019-02-27T22:51:29.020Z,6.68
2019-02-27T22:53:59.429Z,6.69
2019-02-27T22:56:30.067Z,6.63
2019-02-27T22:59:03.162Z,6.65
2019-02-27T23:01:36.985Z,6.55
2019-02-27T23:04:06.911Z,6.59
2019-02-27T23:06:36.573Z,6.69
2019-02-27T23:09:08.978Z,6.62
2019-02-27T23:11:39.717Z,6.70
2019-02-27T23:14:09.593Z,6.71
2019-02-27T23:16:39.618Z,6.67
2019-02-27T23:19:11.999Z,6.59
2019-02-27T23:21:40.687Z,6.56
2019-02-27T23:24:10.974Z,6.57
2019-02-27T23:26:40.656Z,6.54
2019-02-27T23:29:10.306Z,6.50
2019-02-27T23:31:39.961Z,6.43
2019-02-27T23:34:09.679Z,6.50
2019-02-27T23:36:39.340Z,6.62
2019-02-27T23:39:09.706Z,6.54
2019-02-27T23:41:39.408Z,6.43
2019-02-27T23:44:09.101Z,6.32
2019-02-27T23:46:38.805Z,6.24
2019-02-27T23:49:08.453Z,6.24
2019-02-27T23:51:38.280Z,6.25
2019-02-27T23:54:07.972Z,6.20
2019-02-27T23:56:37.726Z,6.21
2019-02-27T23:59:07.408Z,6.15
